Time;durP1;ratioP1;P1;durP2;ratioP2;P2;SDS_P1;SDS_P2;PMS_P1;PMS_P2;Temp;Humidity;BMP_temperature;BMP_pressure;BME280_temperature;BME280_humidity;BME280_pressure;Samples;Min_cycle;Max_cycle;Signal;HPM_P1;HPM_P2
2022/12/08 00:00:00;;;;;;;3.57;1.70;;;;;;;;;;5015143;28;20188;-76
2022/12/08 00:02:25;;;;;;;3.93;1.73;;;;;;;;;;5015758;28;20434;-76
2022/12/08 00:10:21;;;;;;;3.03;1.07;;;;;;;;;;5015366;28;20433;-77
2022/12/08 00:12:49;;;;;;;9.40;1.00;;;;;;;;;;5018838;28;20436;-76
2022/12/08 00:15:18;;;;;;;6.00;0.87;;;;;;;;;;5018668;28;21830;-75
2022/12/08 00:17:45;;;;;;;1.93;0.80;;;;;;;;;;4997962;28;20550;-77
2022/12/08 00:20:16;;;;;;;2.87;0.80;;;;;;;;;;5015015;28;20513;-76
2022/12/08 00:22:41;;;;;;;7.33;1.00;;;;;;;;;;5021250;28;20415;-76
2022/12/08 00:25:09;;;;;;;1.70;0.90;;;;;;;;;;5019981;28;20416;-76
2022/12/08 00:27:37;;;;;;;3.80;1.00;;;;;;;;;;5013941;28;20289;-76
2022/12/08 00:30:02;;;;;;;2.70;1.13;;;;;;;;;;5014338;28;20431;-76
2022/12/08 00:32:31;;;;;;;1.90;1.10;;;;;;;;;;5014092;28;20440;-76
2022/12/08 00:34:57;;;;;;;4.17;1.20;;;;;;;;;;5011922;28;20964;-76
2022/12/08 00:37:22;;;;;;;3.00;0.80;;;;;;;;;;5015065;28;20482;-76
2022/12/08 00:39:50;;;;;;;2.17;0.60;;;;;;;;;;5011484;28;20307;-77
2022/12/08 00:42:16;;;;;;;4.27;0.90;;;;;;;;;;5010193;28;20866;-76
2022/12/08 00:44:42;;;;;;;1.77;0.77;;;;;;;;;;5009437;28;21074;-76
2022/12/08 00:47:07;;;;;;;2.07;0.77;;;;;;;;;;4996286;28;20255;-75
2022/12/08 00:49:35;;;;;;;1.07;0.60;;;;;;;;;;5000321;28;20439;-76
2022/12/08 00:52:03;;;;;;;1.97;0.80;;;;;;;;;;5007343;28;20181;-76
2022/12/08 00:54:31;;;;;;;1.87;0.70;;;;;;;;;;5014635;28;20460;-76
2022/12/08 00:56:56;;;;;;;2.70;1.00;;;;;;;;;;5007973;28;20514;-76
2022/12/08 00:59:22;;;;;;;1.67;0.70;;;;;;;;;;5010249;28;21223;-76
2022/12/08 01:01:49;;;;;;;3.80;1.63;;;;;;;;;;5009318;28;20207;-76
2022/12/08 01:04:16;;;;;;;1.83;0.77;;;;;;;;;;5000812;28;20231;-77
2022/12/08 01:06:44;;;;;;;3.27;0.87;;;;;;;;;;4996832;28;20490;-76
2022/12/08 01:09:10;;;;;;;3.50;1.07;;;;;;;;;;5004550;28;20423;-76
2022/12/08 01:11:37;;;;;;;2.50;1.00;;;;;;;;;;5005969;28;20432;-75
2022/12/08 01:14:03;;;;;;;3.47;1.13;;;;;;;;;;4998667;28;21536;-76
2022/12/08 01:16:33;;;;;;;3.27;1.00;;;;;;;;;;4996418;28;20479;-76
2022/12/08 01:18:59;;;;;;;3.13;0.80;;;;;;;;;;4988799;28;20205;-78
2022/12/08 01:21:25;;;;;;;3.60;1.00;;;;;;;;;;5000105;28;21183;-77
2022/12/08 01:23:50;;;;;;;1.43;0.77;;;;;;;;;;5006787;28;20181;-77
2022/12/08 01:26:17;;;;;;;1.37;0.70;;;;;;;;;;4987893;28;20216;-78
2022/12/08 01:28:42;;;;;;;2.73;1.13;;;;;;;;;;5006788;28;20662;-78
2022/12/08 01:31:15;;;;;;;1.53;0.70;;;;;;;;;;5004904;28;20807;-77
2022/12/08 01:33:41;;;;;;;1.17;0.50;;;;;;;;;;5009584;28;20177;-77
2022/12/08 01:36:07;;;;;;;0.70;0.50;;;;;;;;;;5009501;28;20456;-76
2022/12/08 01:38:32;;;;;;;1.57;0.60;;;;;;;;;;5008322;28;20192;-76
2022/12/08 01:41:00;;;;;;;0.90;0.60;;;;;;;;;;5002724;28;20498;-76
2022/12/08 01:43:44;;;;;;;1.40;0.63;;;;;;;;;;5008272;28;20188;-75
2022/12/08 01:46:09;;;;;;;1.67;0.50;;;;;;;;;;4996951;28;20813;-76
2022/12/08 01:48:35;;;;;;;2.40;0.50;;;;;;;;;;4989467;28;20431;-76
2022/12/08 01:51:03;;;;;;;0.70;0.50;;;;;;;;;;4993356;28;20180;-76
2022/12/08 01:53:34;;;;;;;1.20;0.50;;;;;;;;;;5011420;28;20215;-76
2022/12/08 01:56:05;;;;;;;0.87;0.60;;;;;;;;;;5010307;28;20541;-76
2022/12/08 01:58:36;;;;;;;0.80;0.53;;;;;;;;;;4991644;28;20428;-76
2022/12/08 02:01:01;;;;;;;0.60;0.50;;;;;;;;;;5018859;28;20529;-76
2022/12/08 02:03:34;;;;;;;0.80;0.50;;;;;;;;;;5017374;28;20399;-76
2022/12/08 02:06:03;;;;;;;0.70;0.53;;;;;;;;;;5000583;28;20212;-76
2022/12/08 02:08:30;;;;;;;0.50;0.50;;;;;;;;;;5018457;28;20453;-76
2022/12/08 02:10:58;;;;;;;0.80;0.60;;;;;;;;;;5019020;28;20433;-76
2022/12/08 02:13:28;;;;;;;1.10;0.60;;;;;;;;;;5009012;28;20432;-76
2022/12/08 02:16:24;;;;;;;0.50;0.50;;;;;;;;;;5011668;28;20543;-77
2022/12/08 02:18:56;;;;;;;0.80;0.50;;;;;;;;;;4998856;28;20463;-76
2022/12/08 02:21:30;;;;;;;1.10;0.60;;;;;;;;;;5016838;28;20981;-76
2022/12/08 02:24:16;;;;;;;1.33;0.50;;;;;;;;;;5013755;28;20450;-76
2022/12/08 02:26:47;;;;;;;2.10;0.50;;;;;;;;;;5018160;28;20408;-76
2022/12/08 02:29:33;;;;;;;0.70;0.50;;;;;;;;;;5014349;28;20407;-76
2022/12/08 02:32:07;;;;;;;0.70;0.50;;;;;;;;;;5014555;28;20430;-76
2022/12/08 02:34:32;;;;;;;1.47;0.50;;;;;;;;;;5010040;28;20435;-76
2022/12/08 02:37:05;;;;;;;0.60;0.50;;;;;;;;;;5013250;28;20477;-77
2022/12/08 02:39:49;;;;;;;1.43;0.50;;;;;;;;;;5013089;28;20173;-76
2022/12/08 02:42:23;;;;;;;1.37;0.60;;;;;;;;;;5010092;28;20970;-76
2022/12/08 02:44:54;;;;;;;0.60;0.50;;;;;;;;;;5012414;28;20422;-76
2022/12/08 02:47:23;;;;;;;1.00;0.50;;;;;;;;;;5012214;28;20508;-76
2022/12/08 02:49:51;;;;;;;0.60;0.50;;;;;;;;;;5008220;28;20431;-76
2022/12/08 02:52:16;;;;;;;2.00;0.60;;;;;;;;;;5010417;28;20450;-76
2022/12/08 02:54:44;;;;;;;0.70;0.50;;;;;;;;;;5010478;28;20428;-76
2022/12/08 02:57:28;;;;;;;0.80;0.50;;;;;;;;;;5010467;28;20212;-76
2022/12/08 03:00:14;;;;;;;2.30;0.70;;;;;;;;;;5012829;28;20428;-76
2022/12/08 03:02:45;;;;;;;0.90;0.60;;;;;;;;;;5010063;28;20446;-76
2022/12/08 03:05:19;;;;;;;1.37;0.70;;;;;;;;;;5010999;28;20455;-76
2022/12/08 03:07:51;;;;;;;1.30;0.70;;;;;;;;;;5008910;28;20589;-77
2022/12/08 03:10:28;;;;;;;0.70;0.60;;;;;;;;;;5009450;28;20428;-76
2022/12/08 03:13:03;;;;;;;0.83;0.50;;;;;;;;;;4993067;28;20477;-76
2022/12/08 03:15:31;;;;;;;0.60;0.50;;;;;;;;;;5009599;28;20425;-76
2022/12/08 03:17:59;;;;;;;0.80;0.40;;;;;;;;;;5011195;28;20427;-76
2022/12/08 03:20:26;;;;;;;1.70;0.50;;;;;;;;;;5000608;28;20825;-76
2022/12/08 03:22:53;;;;;;;0.80;0.50;;;;;;;;;;5012166;28;20455;-76
2022/12/08 03:25:20;;;;;;;0.50;0.40;;;;;;;;;;5008762;28;20538;-76
2022/12/08 03:27:45;;;;;;;0.57;0.50;;;;;;;;;;5012682;28;20447;-76
2022/12/08 03:30:11;;;;;;;0.90;0.50;;;;;;;;;;5013972;28;20437;-76
2022/12/08 03:32:36;;;;;;;0.97;0.40;;;;;;;;;;5011392;28;20172;-76
2022/12/08 03:35:04;;;;;;;0.53;0.50;;;;;;;;;;5010642;28;20635;-76
2022/12/08 03:37:33;;;;;;;0.50;0.40;;;;;;;;;;5014867;28;20193;-76
2022/12/08 03:39:58;;;;;;;0.60;0.43;;;;;;;;;;5013849;28;20439;-76
2022/12/08 03:42:24;;;;;;;0.60;0.50;;;;;;;;;;5012373;28;20495;-77
2022/12/08 03:44:51;;;;;;;0.60;0.43;;;;;;;;;;5002208;28;20208;-76
2022/12/08 03:47:17;;;;;;;0.60;0.50;;;;;;;;;;5011230;28;20243;-77
2022/12/08 03:49:44;;;;;;;0.50;0.40;;;;;;;;;;5013758;28;20801;-76
2022/12/08 03:52:11;;;;;;;0.70;0.60;;;;;;;;;;5011943;28;20193;-76
2022/12/08 03:54:39;;;;;;;0.80;0.60;;;;;;;;;;5006680;28;20433;-76
2022/12/08 03:57:07;;;;;;;0.70;0.60;;;;;;;;;;5010945;28;21012;-76
2022/12/08 03:59:37;;;;;;;0.80;0.50;;;;;;;;;;5013101;28;20434;-76
2022/12/08 04:02:05;;;;;;;1.33;0.50;;;;;;;;;;5011946;28;20890;-77
2022/12/08 04:04:33;;;;;;;1.80;0.40;;;;;;;;;;5007711;28;20812;-76
2022/12/08 04:07:00;;;;;;;0.90;0.50;;;;;;;;;;5014671;28;20463;-77
2022/12/08 04:09:28;;;;;;;0.90;0.50;;;;;;;;;;5013543;28;20936;-77
2022/12/08 04:11:53;;;;;;;0.53;0.50;;;;;;;;;;5012287;28;20431;-77
2022/12/08 04:14:21;;;;;;;0.87;0.60;;;;;;;;;;5015118;28;20807;-77
2022/12/08 04:16:48;;;;;;;1.00;0.50;;;;;;;;;;5015953;28;20196;-76
2022/12/08 04:19:16;;;;;;;0.73;0.60;;;;;;;;;;5014436;28;20518;-76
2022/12/08 04:21:43;;;;;;;1.63;0.50;;;;;;;;;;5017235;28;20610;-77
2022/12/08 04:24:12;;;;;;;1.20;0.50;;;;;;;;;;5016494;28;20910;-77
2022/12/08 04:26:37;;;;;;;2.63;0.67;;;;;;;;;;5017739;28;20423;-77
2022/12/08 04:29:04;;;;;;;0.73;0.50;;;;;;;;;;5018272;28;20432;-76
2022/12/08 04:31:30;;;;;;;0.80;0.60;;;;;;;;;;5012903;28;20204;-76
2022/12/08 04:33:55;;;;;;;1.47;0.63;;;;;;;;;;4997132;28;20950;-76
2022/12/08 04:36:23;;;;;;;1.83;1.00;;;;;;;;;;5013489;28;20219;-76
2022/12/08 04:38:53;;;;;;;1.87;0.80;;;;;;;;;;5014594;28;20270;-78
2022/12/08 04:41:18;;;;;;;4.43;1.20;;;;;;;;;;5014943;28;20470;-77
2022/12/08 04:43:46;;;;;;;1.70;0.70;;;;;;;;;;5015690;28;20432;-77
2022/12/08 04:46:13;;;;;;;1.40;1.10;;;;;;;;;;5012965;28;20276;-77
2022/12/08 04:48:41;;;;;;;2.70;1.23;;;;;;;;;;5013534;28;20427;-77
2022/12/08 04:51:11;;;;;;;1.37;0.70;;;;;;;;;;5007776;28;20918;-77
2022/12/08 04:53:36;;;;;;;2.00;0.90;;;;;;;;;;4994605;28;20428;-77
2022/12/08 04:56:04;;;;;;;2.17;0.80;;;;;;;;;;5009499;28;20474;-77
2022/12/08 04:58:31;;;;;;;2.60;0.63;;;;;;;;;;5009979;28;20644;-77
2022/12/08 05:00:57;;;;;;;1.43;0.70;;;;;;;;;;5007413;28;20463;-77
2022/12/08 05:03:24;;;;;;;2.93;0.60;;;;;;;;;;5006904;28;20474;-76
2022/12/08 05:05:52;;;;;;;2.43;0.87;;;;;;;;;;4994928;28;20211;-76
2022/12/08 05:08:22;;;;;;;1.27;0.60;;;;;;;;;;5006226;28;20432;-76
2022/12/08 05:10:49;;;;;;;2.67;0.67;;;;;;;;;;5005402;28;20447;-77
2022/12/08 05:13:14;;;;;;;1.57;0.60;;;;;;;;;;4992615;28;20432;-76
2022/12/08 05:15:42;;;;;;;2.10;0.60;;;;;;;;;;5009568;28;20482;-76
2022/12/08 05:18:10;;;;;;;3.53;0.60;;;;;;;;;;5009954;28;20181;-76
2022/12/08 05:20:37;;;;;;;1.50;0.60;;;;;;;;;;4993838;28;20469;-77
2022/12/08 05:23:05;;;;;;;1.00;0.60;;;;;;;;;;5011733;28;20542;-77
2022/12/08 05:25:33;;;;;;;1.10;0.60;;;;;;;;;;5012465;28;20522;-76
2022/12/08 05:28:00;;;;;;;0.90;0.50;;;;;;;;;;5012407;28;20883;-76
2022/12/08 05:30:29;;;;;;;1.00;0.60;;;;;;;;;;4997265;28;20890;-77
2022/12/08 05:32:59;;;;;;;1.17;0.60;;;;;;;;;;5015949;28;20515;-76
2022/12/08 05:35:29;;;;;;;1.20;0.60;;;;;;;;;;5015491;28;20529;-77
2022/12/08 05:38:02;;;;;;;1.43;0.50;;;;;;;;;;5014555;28;20497;-77
2022/12/08 05:40:32;;;;;;;1.23;0.50;;;;;;;;;;5009900;28;20466;-76
2022/12/08 05:42:59;;;;;;;0.50;0.40;;;;;;;;;;5012748;28;20528;-77
2022/12/08 05:45:27;;;;;;;0.50;0.40;;;;;;;;;;5008455;28;20431;-77
2022/12/08 05:47:54;;;;;;;1.93;0.60;;;;;;;;;;5011201;28;20432;-75
2022/12/08 05:50:20;;;;;;;0.70;0.60;;;;;;;;;;5010267;28;21391;-75
2022/12/08 05:52:48;;;;;;;0.90;0.50;;;;;;;;;;5009386;28;20484;-76
2022/12/08 05:55:18;;;;;;;0.83;0.53;;;;;;;;;;5006486;28;20241;-77
2022/12/08 05:57:43;;;;;;;0.90;0.57;;;;;;;;;;5011059;28;20529;-76
2022/12/08 06:00:09;;;;;;;0.60;0.50;;;;;;;;;;5015759;28;20889;-77
2022/12/08 06:02:39;;;;;;;1.30;0.60;;;;;;;;;;5004836;28;20639;-76
2022/12/08 06:05:05;;;;;;;3.07;0.80;;;;;;;;;;5016389;28;20208;-76
2022/12/08 06:07:32;;;;;;;1.10;0.50;;;;;;;;;;5018161;28;20454;-76
2022/12/08 06:09:57;;;;;;;1.20;0.70;;;;;;;;;;5001710;28;20612;-76
2022/12/08 06:12:26;;;;;;;1.40;0.80;;;;;;;;;;5017169;28;20412;-76
2022/12/08 06:14:51;;;;;;;1.47;1.07;;;;;;;;;;4998802;28;20601;-76
2022/12/08 06:17:21;;;;;;;3.13;1.73;;;;;;;;;;4998045;28;20439;-77
2022/12/08 06:19:49;;;;;;;4.33;2.63;;;;;;;;;;5015086;28;20230;-76
2022/12/08 06:22:19;;;;;;;2.03;1.37;;;;;;;;;;5008877;28;20468;-77
2022/12/08 06:24:46;;;;;;;2.90;0.83;;;;;;;;;;5014120;28;20515;-77
2022/12/08 06:27:14;;;;;;;1.63;1.20;;;;;;;;;;5012997;28;20526;-77
2022/12/08 06:29:44;;;;;;;1.47;0.70;;;;;;;;;;5006219;28;20424;-77
2022/12/08 06:32:14;;;;;;;1.80;0.80;;;;;;;;;;5003779;28;20523;-77
2022/12/08 06:34:42;;;;;;;1.43;0.83;;;;;;;;;;5004589;28;20513;-77
2022/12/08 06:37:07;;;;;;;2.73;0.80;;;;;;;;;;5007085;28;20462;-77
2022/12/08 06:39:37;;;;;;;1.17;0.80;;;;;;;;;;5011558;28;20847;-77
2022/12/08 06:44:51;;;;;;;2.00;0.70;;;;;;;;;;5013592;28;20456;-77
2022/12/08 06:47:19;;;;;;;0.93;0.80;;;;;;;;;;5000574;28;20465;-77
2022/12/08 06:49:44;;;;;;;1.37;0.60;;;;;;;;;;5015153;28;20418;-77
2022/12/08 06:52:10;;;;;;;2.93;0.50;;;;;;;;;;5015481;28;20894;-77
2022/12/08 06:54:37;;;;;;;1.03;0.73;;;;;;;;;;5016233;28;20185;-76
2022/12/08 06:57:05;;;;;;;5.93;1.23;;;;;;;;;;5016211;28;20200;-77
2022/12/08 06:59:35;;;;;;;0.87;0.70;;;;;;;;;;5014448;28;20419;-77
2022/12/08 07:02:02;;;;;;;1.70;0.67;;;;;;;;;;5007208;28;20470;-77
2022/12/08 07:04:27;;;;;;;2.70;0.70;;;;;;;;;;5016082;28;20416;-77
2022/12/08 07:06:53;;;;;;;1.00;0.60;;;;;;;;;;5012922;28;20460;-76
2022/12/08 07:09:20;;;;;;;2.23;0.80;;;;;;;;;;5010734;28;20169;-75
2022/12/08 07:11:46;;;;;;;1.53;0.77;;;;;;;;;;5009313;28;20263;-76
2022/12/08 07:14:11;;;;;;;1.03;0.70;;;;;;;;;;5012314;28;20471;-76
2022/12/08 07:16:38;;;;;;;1.63;0.70;;;;;;;;;;5015696;28;20205;-75
2022/12/08 07:19:03;;;;;;;1.67;0.70;;;;;;;;;;5016396;28;20192;-74
2022/12/08 07:21:28;;;;;;;1.10;0.70;;;;;;;;;;5025050;28;21012;-74
2022/12/08 07:23:56;;;;;;;1.43;0.60;;;;;;;;;;5003748;28;20564;-76
2022/12/08 07:26:21;;;;;;;0.80;0.63;;;;;;;;;;5017635;28;20671;-76
2022/12/08 07:28:47;;;;;;;2.63;0.80;;;;;;;;;;5015643;28;20526;-76
2022/12/08 07:31:19;;;;;;;1.20;0.70;;;;;;;;;;5020045;28;20267;-76
2022/12/08 07:33:45;;;;;;;1.47;0.60;;;;;;;;;;5011324;28;20555;-76
2022/12/08 07:36:11;;;;;;;3.10;0.80;;;;;;;;;;5015000;28;20446;-76
2022/12/08 07:38:39;;;;;;;1.37;0.70;;;;;;;;;;5018586;28;20189;-76
2022/12/08 07:41:09;;;;;;;4.10;0.80;;;;;;;;;;5016525;28;20468;-75
2022/12/08 07:43:35;;;;;;;2.70;1.17;;;;;;;;;;5018646;28;20440;-76
2022/12/08 07:46:00;;;;;;;1.10;0.80;;;;;;;;;;5015827;28;20474;-76
2022/12/08 07:48:28;;;;;;;3.23;1.10;;;;;;;;;;5018405;28;20177;-75
2022/12/08 07:51:01;;;;;;;1.80;0.80;;;;;;;;;;5017409;28;20230;-75
2022/12/08 07:53:29;;;;;;;2.43;0.80;;;;;;;;;;5018986;28;20457;-76
2022/12/08 07:55:59;;;;;;;2.63;1.03;;;;;;;;;;5002016;28;20830;-77
2022/12/08 07:58:27;;;;;;;2.17;1.20;;;;;;;;;;5026657;28;20429;-76
2022/12/08 08:00:55;;;;;;;2.30;0.90;;;;;;;;;;5000020;28;20996;-77
2022/12/08 08:03:21;;;;;;;3.10;1.03;;;;;;;;;;5029847;23;20545;-70
2022/12/08 08:05:48;;;;;;;2.00;1.33;;;;;;;;;;5020724;28;21059;-69
2022/12/08 08:08:13;;;;;;;2.00;1.40;;;;;;;;;;5009727;28;20439;-69
2022/12/08 08:10:38;;;;;;;4.60;1.37;;;;;;;;;;5023847;28;20419;-70
2022/12/08 08:13:04;;;;;;;1.63;1.10;;;;;;;;;;5004669;28;20200;-69
2022/12/08 08:15:29;;;;;;;1.30;1.00;;;;;;;;;;5022346;28;20177;-70
2022/12/08 08:17:55;;;;;;;3.23;1.10;;;;;;;;;;5023840;28;20529;-70
2022/12/08 08:20:20;;;;;;;3.77;1.50;;;;;;;;;;5025757;28;20585;-70
2022/12/08 08:22:46;;;;;;;2.90;1.80;;;;;;;;;;5022623;28;20283;-69
2022/12/08 08:25:12;;;;;;;3.00;1.40;;;;;;;;;;5022139;28;20185;-69
2022/12/08 08:27:37;;;;;;;3.07;1.70;;;;;;;;;;5022122;28;20746;-69
2022/12/08 08:30:03;;;;;;;3.40;1.60;;;;;;;;;;5021708;28;20642;-69
2022/12/08 08:32:31;;;;;;;4.20;2.10;;;;;;;;;;5021938;28;20699;-68
2022/12/08 08:34:56;;;;;;;5.50;2.30;;;;;;;;;;5022315;28;20217;-70
2022/12/08 08:37:22;;;;;;;5.97;2.03;;;;;;;;;;5010444;28;20500;-69
2022/12/08 08:39:47;;;;;;;3.13;1.50;;;;;;;;;;5007434;28;20235;-69
2022/12/08 08:42:12;;;;;;;3.37;1.43;;;;;;;;;;5021255;28;20213;-69
2022/12/08 08:44:38;;;;;;;7.33;1.97;;;;;;;;;;5022876;28;20184;-69
2022/12/08 08:47:03;;;;;;;3.90;1.60;;;;;;;;;;5021030;28;20459;-70
2022/12/08 08:49:29;;;;;;;4.30;1.60;;;;;;;;;;5004895;28;20248;-69
2022/12/08 08:51:54;;;;;;;5.07;2.07;;;;;;;;;;5022929;28;20216;-70
2022/12/08 08:54:19;;;;;;;4.20;1.93;;;;;;;;;;5025124;28;20612;-69
2022/12/08 08:56:44;;;;;;;4.30;2.30;;;;;;;;;;5022476;28;20678;-69
2022/12/08 08:59:10;;;;;;;3.73;2.43;;;;;;;;;;5005322;28;20223;-69
2022/12/08 09:01:35;;;;;;;3.57;2.90;;;;;;;;;;5001231;28;20679;-69
2022/12/08 09:04:01;;;;;;;6.60;2.90;;;;;;;;;;5002802;28;20204;-69
2022/12/08 09:06:29;;;;;;;6.00;3.30;;;;;;;;;;5020915;28;20177;-69
2022/12/08 09:08:54;;;;;;;4.63;3.27;;;;;;;;;;5019960;28;20184;-69
2022/12/08 09:11:22;;;;;;;6.53;4.27;;;;;;;;;;5020290;28;20446;-69
2022/12/08 09:13:48;;;;;;;8.10;5.40;;;;;;;;;;5001667;28;20208;-69
2022/12/08 09:16:14;;;;;;;7.70;7.00;;;;;;;;;;5001265;28;20447;-69
2022/12/08 09:18:39;;;;;;;7.43;6.70;;;;;;;;;;5019123;28;20880;-69
2022/12/08 09:21:05;;;;;;;12.33;8.33;;;;;;;;;;5001958;28;20299;-70
2022/12/08 09:23:30;;;;;;;11.70;10.50;;;;;;;;;;5018583;28;20207;-70
2022/12/08 09:25:56;;;;;;;12.33;11.13;;;;;;;;;;5021001;28;20786;-69
2022/12/08 09:28:21;;;;;;;13.33;11.30;;;;;;;;;;5017964;28;20169;-70
2022/12/08 09:30:46;;;;;;;18.83;11.67;;;;;;;;;;5006764;28;20770;-69
2022/12/08 09:33:12;;;;;;;15.10;13.00;;;;;;;;;;5018415;28;20727;-70
2022/12/08 09:35:37;;;;;;;11.73;10.53;;;;;;;;;;5022316;28;20636;-67
2022/12/08 09:38:03;;;;;;;13.23;11.93;;;;;;;;;;5002656;28;20181;-69
2022/12/08 09:40:29;;;;;;;12.20;10.93;;;;;;;;;;5003690;28;20970;-69
2022/12/08 09:42:58;;;;;;;13.10;11.83;;;;;;;;;;5019268;28;20216;-70
2022/12/08 09:45:25;;;;;;;11.40;10.20;;;;;;;;;;5001720;28;20431;-70
2022/12/08 09:47:59;;;;;;;10.03;9.00;;;;;;;;;;5003489;28;20456;-70
2022/12/08 09:50:24;;;;;;;10.90;9.47;;;;;;;;;;5001970;28;20397;-69
2022/12/08 09:52:55;;;;;;;9.30;6.80;;;;;;;;;;5004729;28;20972;-69
2022/12/08 09:55:23;;;;;;;7.73;6.60;;;;;;;;;;5004084;28;20169;-69
2022/12/08 09:57:53;;;;;;;9.07;6.00;;;;;;;;;;5018882;28;20412;-69
2022/12/08 10:00:18;;;;;;;4.40;3.60;;;;;;;;;;5021390;28;20499;-69
2022/12/08 10:02:44;;;;;;;4.90;3.00;;;;;;;;;;5018624;28;20471;-69
2022/12/08 10:05:12;;;;;;;3.83;2.30;;;;;;;;;;5015275;28;20185;-70
2022/12/08 10:07:41;;;;;;;3.13;2.00;;;;;;;;;;5000629;28;20800;-69
2022/12/08 10:10:18;;;;;;;2.60;1.87;;;;;;;;;;5020008;28;20438;-70
2022/12/08 10:12:46;;;;;;;5.10;2.10;;;;;;;;;;5018557;28;20509;-69
2022/12/08 10:15:18;;;;;;;3.10;1.83;;;;;;;;;;5018575;28;20419;-69
2022/12/08 10:17:49;;;;;;;2.40;1.27;;;;;;;;;;5017901;28;21196;-70
2022/12/08 10:20:16;;;;;;;2.10;1.37;;;;;;;;;;4997931;28;20522;-70
2022/12/08 10:22:43;;;;;;;4.33;1.50;;;;;;;;;;5003229;28;20571;-69
2022/12/08 10:25:19;;;;;;;3.33;1.23;;;;;;;;;;5021319;28;20897;-69
2022/12/08 10:27:45;;;;;;;2.57;1.47;;;;;;;;;;5002967;28;20425;-69
2022/12/08 10:30:14;;;;;;;2.77;1.27;;;;;;;;;;5003871;28;20415;-68
2022/12/08 10:32:42;;;;;;;3.60;1.73;;;;;;;;;;5002323;28;20879;-70
2022/12/08 10:35:12;;;;;;;3.67;1.77;;;;;;;;;;5003501;28;20403;-68
2022/12/08 10:37:37;;;;;;;4.33;1.63;;;;;;;;;;5017250;28;20440;-69
2022/12/08 10:40:10;;;;;;;3.90;1.30;;;;;;;;;;5001520;28;20421;-69
2022/12/08 10:42:41;;;;;;;4.13;1.20;;;;;;;;;;4991951;28;20645;-68
2022/12/08 10:45:09;;;;;;;7.07;1.30;;;;;;;;;;5014987;28;20443;-69
2022/12/08 10:47:37;;;;;;;3.43;1.10;;;;;;;;;;4999593;28;20412;-69
2022/12/08 10:50:08;;;;;;;3.43;0.90;;;;;;;;;;5016777;28;20459;-69
2022/12/08 10:52:36;;;;;;;5.20;1.00;;;;;;;;;;5019570;28;20443;-69
2022/12/08 10:55:02;;;;;;;2.03;0.90;;;;;;;;;;5019254;28;20411;-69
2022/12/08 10:57:27;;;;;;;2.53;1.07;;;;;;;;;;5020064;28;20412;-70
2022/12/08 10:59:53;;;;;;;1.80;0.90;;;;;;;;;;5003371;28;20208;-69
2022/12/08 11:02:19;;;;;;;4.03;1.10;;;;;;;;;;5019235;28;20693;-69
2022/12/08 11:04:45;;;;;;;6.33;1.27;;;;;;;;;;5000464;28;20272;-69
2022/12/08 11:07:20;;;;;;;3.50;1.30;;;;;;;;;;4999016;28;20177;-70
2022/12/08 11:09:47;;;;;;;1.30;1.10;;;;;;;;;;4999508;28;20423;-70
2022/12/08 11:12:14;;;;;;;3.47;0.87;;;;;;;;;;5001746;28;21007;-71
2022/12/08 11:14:42;;;;;;;2.10;1.10;;;;;;;;;;4986442;28;20802;-71
2022/12/08 11:17:12;;;;;;;1.00;0.70;;;;;;;;;;5010833;28;21005;-70
2022/12/08 11:19:38;;;;;;;1.50;0.70;;;;;;;;;;5016940;28;20434;-69
2022/12/08 11:22:22;;;;;;;2.87;1.03;;;;;;;;;;4999465;28;20462;-69
2022/12/08 11:24:55;;;;;;;2.40;0.70;;;;;;;;;;5013238;28;20542;-69
2022/12/08 11:27:20;;;;;;;3.33;0.70;;;;;;;;;;5001304;28;20869;-69
2022/12/08 11:29:46;;;;;;;2.67;0.70;;;;;;;;;;5009056;28;20439;-69
2022/12/08 11:32:12;;;;;;;2.97;0.70;;;;;;;;;;5019534;28;20201;-68
2022/12/08 11:34:56;;;;;;;2.03;0.70;;;;;;;;;;5000393;28;20188;-69
2022/12/08 11:37:47;;;;;;;3.30;0.90;;;;;;;;;;5013483;28;20244;-68
2022/12/08 11:40:22;;;;;;;2.43;0.90;;;;;;;;;;4996319;28;20443;-69
2022/12/08 11:42:53;;;;;;;4.20;1.03;;;;;;;;;;5017677;28;20462;-68
2022/12/08 11:45:23;;;;;;;2.97;1.07;;;;;;;;;;5000089;28;20481;-68
2022/12/08 11:47:51;;;;;;;3.63;0.90;;;;;;;;;;4998165;28;20675;-68
2022/12/08 11:50:19;;;;;;;1.67;0.80;;;;;;;;;;5018473;28;20419;-69
2022/12/08 11:52:46;;;;;;;1.90;0.80;;;;;;;;;;4997021;28;20997;-68
2022/12/08 11:55:14;;;;;;;1.53;0.80;;;;;;;;;;5016264;28;20434;-69
2022/12/08 11:57:39;;;;;;;4.00;0.93;;;;;;;;;;5017258;28;20458;-69
2022/12/08 12:00:05;;;;;;;2.80;0.80;;;;;;;;;;5015174;28;20518;-69
2022/12/08 12:02:33;;;;;;;3.30;0.90;;;;;;;;;;5000560;28;20223;-69
2022/12/08 12:05:20;;;;;;;1.80;1.00;;;;;;;;;;5014991;28;20185;-70
2022/12/08 12:08:09;;;;;;;1.03;0.70;;;;;;;;;;5018051;28;20869;-69
2022/12/08 12:10:40;;;;;;;2.53;0.83;;;;;;;;;;4969656;28;20463;-70
2022/12/08 12:13:08;;;;;;;3.93;1.00;;;;;;;;;;5019817;28;20452;-70
2022/12/08 12:15:52;;;;;;;3.70;1.20;;;;;;;;;;5020751;28;20498;-70
2022/12/08 12:18:30;;;;;;;8.60;1.70;;;;;;;;;;5017091;28;20436;-69
2022/12/08 12:20:55;;;;;;;4.70;0.97;;;;;;;;;;4998399;28;20447;-70
2022/12/08 12:23:27;;;;;;;2.50;0.87;;;;;;;;;;5004660;28;20447;-70
2022/12/08 12:25:57;;;;;;;1.40;0.70;;;;;;;;;;5016366;28;20168;-69
2022/12/08 12:28:25;;;;;;;5.77;0.80;;;;;;;;;;4993977;28;20455;-70
2022/12/08 12:30:56;;;;;;;2.23;0.80;;;;;;;;;;5001638;28;20535;-70
2022/12/08 12:33:22;;;;;;;3.67;1.20;;;;;;;;;;5015958;28;20480;-70
2022/12/08 12:35:47;;;;;;;2.10;0.90;;;;;;;;;;5018315;28;20467;-69
2022/12/08 12:41:07;;;;;;;2.63;1.10;;;;;;;;;;5017253;28;20199;-69
2022/12/08 12:43:34;;;;;;;3.43;1.00;;;;;;;;;;5003791;28;20532;-69
2022/12/08 12:46:18;;;;;;;1.73;0.70;;;;;;;;;;5014273;28;20432;-70
2022/12/08 12:48:44;;;;;;;3.57;0.87;;;;;;;;;;4999569;28;20432;-70
2022/12/08 12:51:35;;;;;;;2.90;0.90;;;;;;;;;;5012056;28;20643;-70
2022/12/08 12:54:21;;;;;;;1.70;1.00;;;;;;;;;;4987131;28;20462;-70
2022/12/08 12:56:48;;;;;;;2.53;1.00;;;;;;;;;;4999557;28;20455;-70
2022/12/08 12:59:32;;;;;;;3.87;1.00;;;;;;;;;;5016669;28;20428;-70
2022/12/08 13:01:57;;;;;;;2.40;0.90;;;;;;;;;;5015329;28;20455;-70
2022/12/08 13:04:31;;;;;;;3.93;1.00;;;;;;;;;;4988591;28;20454;-68
2022/12/08 13:06:56;;;;;;;2.40;0.80;;;;;;;;;;5012313;28;20268;-69
2022/12/08 13:09:25;;;;;;;3.90;0.90;;;;;;;;;;5016966;28;20455;-69
2022/12/08 13:11:53;;;;;;;1.50;0.63;;;;;;;;;;5000753;28;20200;-69
2022/12/08 13:14:29;;;;;;;1.80;0.80;;;;;;;;;;5012211;28;20443;-69
2022/12/08 13:16:58;;;;;;;3.20;0.80;;;;;;;;;;5000122;28;20566;-69
2022/12/08 13:19:24;;;;;;;1.53;0.73;;;;;;;;;;4997982;28;20452;-69
2022/12/08 13:21:49;;;;;;;2.90;0.80;;;;;;;;;;5000183;28;20582;-68
2022/12/08 13:24:24;;;;;;;4.70;0.80;;;;;;;;;;5005476;28;20462;-69
2022/12/08 13:27:04;;;;;;;2.37;0.90;;;;;;;;;;5015486;28;20176;-68
2022/12/08 13:29:36;;;;;;;3.07;0.93;;;;;;;;;;5013271;28;20432;-68
2022/12/08 13:32:02;;;;;;;0.93;0.60;;;;;;;;;;5015748;28;20791;-68
2022/12/08 13:34:28;;;;;;;2.30;0.70;;;;;;;;;;5013132;28;20439;-69
2022/12/08 13:36:56;;;;;;;3.07;0.90;;;;;;;;;;5011959;28;21025;-69
2022/12/08 13:39:25;;;;;;;1.27;0.60;;;;;;;;;;4994687;28;20185;-69
2022/12/08 13:42:02;;;;;;;3.93;0.80;;;;;;;;;;5015143;28;20516;-70
2022/12/08 13:44:42;;;;;;;0.77;0.50;;;;;;;;;;5016046;28;20427;-69
2022/12/08 13:47:10;;;;;;;1.00;0.70;;;;;;;;;;4992450;28;20435;-69
2022/12/08 13:49:40;;;;;;;1.20;0.70;;;;;;;;;;5012644;28;20436;-69
2022/12/08 13:52:12;;;;;;;4.83;0.70;;;;;;;;;;4998237;28;20547;-69
2022/12/08 13:54:41;;;;;;;3.63;0.70;;;;;;;;;;5014661;28;20451;-69
2022/12/08 13:57:07;;;;;;;1.73;0.60;;;;;;;;;;5014584;28;20942;-69
2022/12/08 13:59:35;;;;;;;2.20;0.70;;;;;;;;;;5003371;28;20957;-69
2022/12/08 14:02:13;;;;;;;2.50;0.73;;;;;;;;;;5014189;28;20574;-68
2022/12/08 14:04:42;;;;;;;2.43;0.77;;;;;;;;;;5014771;28;20434;-67
2022/12/08 14:07:10;;;;;;;2.27;0.70;;;;;;;;;;5018406;28;20466;-68
2022/12/08 14:09:36;;;;;;;1.23;0.80;;;;;;;;;;4995703;28;20432;-68
2022/12/08 14:12:05;;;;;;;1.27;0.70;;;;;;;;;;5000656;28;20527;-68
2022/12/08 14:14:37;;;;;;;2.30;0.60;;;;;;;;;;5011126;28;20444;-68
2022/12/08 14:17:04;;;;;;;1.03;0.50;;;;;;;;;;5010597;28;20769;-68
2022/12/08 14:19:31;;;;;;;1.23;0.60;;;;;;;;;;5010718;28;20518;-69
2022/12/08 14:21:57;;;;;;;2.20;0.73;;;;;;;;;;4998540;28;20475;-69
2022/12/08 14:24:23;;;;;;;3.00;0.63;;;;;;;;;;5012343;28;20447;-70
2022/12/08 14:26:50;;;;;;;1.67;0.60;;;;;;;;;;5011310;28;20440;-69
2022/12/08 14:29:31;;;;;;;2.33;0.70;;;;;;;;;;5011443;28;20478;-69
2022/12/08 14:31:57;;;;;;;1.07;0.63;;;;;;;;;;4998298;28;20428;-69
2022/12/08 14:34:22;;;;;;;2.53;0.97;;;;;;;;;;5002636;28;20432;-70
2022/12/08 14:36:47;;;;;;;4.70;0.90;;;;;;;;;;5009726;28;20276;-70
2022/12/08 14:39:13;;;;;;;1.93;0.77;;;;;;;;;;5015433;28;20544;-70
2022/12/08 14:41:38;;;;;;;1.83;0.90;;;;;;;;;;5015790;28;20215;-70
2022/12/08 14:44:17;;;;;;;1.57;0.90;;;;;;;;;;5000277;28;20311;-70
2022/12/08 14:47:01;;;;;;;1.10;0.80;;;;;;;;;;4996501;28;20552;-70
2022/12/08 14:49:34;;;;;;;1.40;0.80;;;;;;;;;;5011168;28;20446;-70
2022/12/08 14:52:00;;;;;;;2.53;1.10;;;;;;;;;;5016629;28;20521;-70
2022/12/08 14:54:28;;;;;;;1.00;0.80;;;;;;;;;;4999308;28;20493;-69
2022/12/08 14:56:55;;;;;;;1.73;1.17;;;;;;;;;;5011186;28;20496;-68
2022/12/08 14:59:21;;;;;;;0.97;0.80;;;;;;;;;;4992532;28;20534;-68
2022/12/08 15:01:48;;;;;;;4.20;0.80;;;;;;;;;;4990544;28;20462;-67